createdAt,value
2023-03-27T00:03:10.879Z,99.90
2023-03-27T00:07:12.600Z,99.90
2023-03-27T00:11:15.195Z,99.90
2023-03-27T00:15:19.760Z,99.90
2023-03-27T00:19:21.698Z,99.90
2023-03-27T00:23:23.271Z,99.90
2023-03-27T00:27:26.901Z,99.90
2023-03-27T00:31:28.580Z,99.90
2023-03-27T00:35:30.342Z,99.90
2023-03-27T00:39:31.957Z,99.90
2023-03-27T00:43:34.939Z,99.90
2023-03-27T00:47:38.627Z,99.90
2023-03-27T00:51:41.666Z,99.90
2023-03-27T00:55:45.092Z,99.90
2023-03-27T00:59:49.170Z,99.90
2023-03-27T01:03:55.142Z,99.90
2023-03-27T01:08:00.455Z,99.90
2023-03-27T01:12:04.461Z,99.90
2023-03-27T01:20:51.686Z,99.90
2023-03-27T01:25:13.036Z,99.90
2023-03-27T01:29:27.834Z,99.90
2023-03-27T01:34:00.844Z,99.90
2023-03-27T01:38:32.115Z,99.90
2023-03-27T01:43:05.532Z,99.90
2023-03-27T01:51:52.966Z,99.90
2023-03-27T01:56:03.627Z,99.90
2023-03-27T02:00:19.579Z,99.90
2023-03-27T02:04:28.807Z,99.90
2023-03-27T02:08:36.786Z,99.90
2023-03-27T02:12:43.478Z,99.90
2023-03-27T02:16:55.840Z,99.90
2023-03-27T02:20:58.620Z,99.90
2023-03-27T02:25:02.764Z,99.90
2023-03-27T02:29:19.648Z,99.90
2023-03-27T03:28:13.365Z,99.90
2023-03-27T03:32:15.508Z,99.90
2023-03-27T03:36:17.126Z,99.90
2023-03-27T03:40:19.445Z,99.90
2023-03-27T03:44:21.101Z,99.90
2023-03-27T03:48:22.822Z,99.90
2023-03-27T03:52:24.439Z,99.90
2023-03-27T03:56:27.775Z,99.90
2023-03-27T04:00:29.432Z,99.90
2023-03-27T04:04:32.135Z,99.90
2023-03-27T04:08:34.521Z,99.90
2023-03-27T04:12:36.127Z,99.90
2023-03-27T04:16:37.737Z,99.90
2023-03-27T04:20:39.321Z,99.90
2023-03-27T04:24:44.701Z,99.90
2023-03-27T04:28:47.082Z,99.90
2023-03-27T04:32:49.803Z,99.90
2023-03-27T04:36:52.149Z,99.90
2023-03-27T04:40:54.325Z,99.90
2023-03-27T04:44:56.633Z,99.90
2023-03-27T04:48:59.040Z,99.90
2023-03-27T04:53:02.011Z,99.90
2023-03-27T04:57:05.797Z,99.90
2023-03-27T05:01:09.547Z,99.90
2023-03-27T05:05:14.087Z,99.90
2023-03-27T05:09:23.324Z,99.90
2023-03-27T05:13:26.860Z,99.90
2023-03-27T05:17:28.868Z,99.90
2023-03-27T05:21:32.500Z,99.90
2023-03-27T05:25:37.792Z,99.90
2023-03-27T05:29:47.424Z,99.90
2023-03-27T05:33:54.593Z,99.90
2023-03-27T05:37:58.374Z,99.90
2023-03-27T05:42:00.018Z,99.90
2023-03-27T05:46:05.449Z,99.90
2023-03-27T05:50:07.503Z,99.90
2023-03-27T05:54:09.158Z,99.90
2023-03-27T05:58:17.749Z,99.90
2023-03-27T06:02:21.481Z,99.90
2023-03-27T06:06:23.333Z,99.90
2023-03-27T06:10:26.843Z,99.90
2023-03-27T06:14:28.433Z,99.90
2023-03-27T06:18:30.067Z,99.90
2023-03-27T06:22:31.793Z,99.90
2023-03-27T06:26:33.924Z,99.90
2023-03-27T06:30:38.284Z,99.90
2023-03-27T06:34:40.470Z,99.90
2023-03-27T06:38:44.210Z,99.90
2023-03-27T06:42:50.416Z,99.90
2023-03-27T06:46:56.965Z,99.90
2023-03-27T06:50:58.779Z,99.90
2023-03-27T06:55:00.666Z,99.90
2023-03-27T06:59:08.364Z,99.90
2023-03-27T07:03:11.010Z,99.90
2023-03-27T07:07:31.737Z,99.90
2023-03-27T07:11:35.419Z,99.90
2023-03-27T07:15:37.418Z,99.90
2023-03-27T07:19:39.067Z,99.90
2023-03-27T07:23:43.906Z,99.90
2023-03-27T07:27:48.019Z,99.90
2023-03-27T07:35:57.542Z,99.90
2023-03-27T07:39:59.336Z,99.90
2023-03-27T07:44:02.881Z,99.90
2023-03-27T07:48:15.981Z,99.90
2023-03-27T07:52:18.401Z,99.90
2023-03-27T07:56:20.880Z,99.90
2023-03-27T08:00:27.982Z,99.90
2023-03-27T08:04:30.147Z,99.90
2023-03-27T08:08:44.613Z,99.90
2023-03-27T08:12:46.690Z,99.90
2023-03-27T08:16:51.531Z,99.90
2023-03-27T08:21:00.244Z,99.90
2023-03-27T08:25:04.459Z,99.90
2023-03-27T08:29:09.325Z,99.90
2023-03-27T08:33:11.715Z,99.90
2023-03-27T08:37:16.980Z,99.90
2023-03-27T08:41:28.612Z,99.90
2023-03-27T08:45:36.728Z,99.90
2023-03-27T08:49:41.425Z,99.90
2023-03-27T08:53:49.222Z,99.90
2023-03-27T08:57:51.092Z,99.90
2023-03-27T09:02:13.936Z,99.90
2023-03-27T09:06:18.762Z,99.90
2023-03-27T09:10:24.393Z,99.90
2023-03-27T09:14:26.066Z,99.90
2023-03-27T09:18:33.226Z,99.90
2023-03-27T09:22:40.826Z,99.90
2023-03-27T09:26:42.984Z,99.90
2023-03-27T09:30:44.666Z,99.90
2023-03-27T09:34:48.008Z,99.90
2023-03-27T09:38:51.545Z,99.90
2023-03-27T09:42:53.362Z,99.90
2023-03-27T09:47:06.525Z,99.90
2023-03-27T09:51:28.198Z,99.90
2023-03-27T09:55:31.139Z,99.90
2023-03-27T09:59:37.873Z,99.90
2023-03-27T10:03:41.515Z,99.90
2023-03-27T10:07:46.535Z,99.90
2023-03-27T10:11:50.196Z,99.90
2023-03-27T10:15:58.017Z,99.90
2023-03-27T10:20:02.813Z,99.90
2023-03-27T10:24:06.680Z,98.70
2023-03-27T10:28:16.382Z,97.30
2023-03-27T10:32:17.964Z,97.40
2023-03-27T10:36:23.542Z,97.20
2023-03-27T10:40:26.258Z,97.90
2023-03-27T10:44:28.525Z,97.60
2023-03-27T10:48:39.253Z,96.10
2023-03-27T10:52:50.280Z,96.50
2023-03-27T10:57:05.000Z,97.30
2023-03-27T11:01:24.995Z,95.80
2023-03-27T11:05:34.878Z,94.00
2023-03-27T11:09:38.636Z,93.70
2023-03-27T11:13:42.035Z,93.30
2023-03-27T11:17:49.200Z,95.40
2023-03-27T11:21:55.967Z,94.90
2023-03-27T11:26:00.217Z,96.80
2023-03-27T11:30:08.212Z,95.30
2023-03-27T11:34:29.320Z,95.10
2023-03-27T11:38:33.889Z,95.00
2023-03-27T11:42:37.702Z,94.40
2023-03-27T11:46:54.270Z,96.80
2023-03-27T11:51:02.872Z,99.90
2023-03-27T11:55:24.102Z,99.90
2023-03-27T11:59:44.497Z,99.90
2023-03-27T12:04:05.174Z,99.90
2023-03-27T12:08:22.893Z,99.90
2023-03-27T12:12:42.985Z,99.90
2023-03-27T12:16:56.795Z,99.90
2023-03-27T12:21:19.011Z,99.90
2023-03-27T12:25:39.863Z,99.90
2023-03-27T12:30:00.012Z,99.90
2023-03-27T12:34:04.372Z,99.90
2023-03-27T12:38:09.080Z,99.90
2023-03-27T12:42:14.457Z,99.90
2023-03-27T12:46:30.113Z,99.90
2023-03-27T12:50:34.000Z,99.90
2023-03-27T12:54:38.952Z,99.90
2023-03-27T12:58:41.032Z,99.90
2023-03-27T13:02:42.826Z,99.90
2023-03-27T13:06:51.667Z,99.90
2023-03-27T13:10:53.264Z,99.90
2023-03-27T13:15:06.939Z,99.90
2023-03-27T13:19:27.322Z,99.90
2023-03-27T13:23:28.988Z,99.90
2023-03-27T13:27:45.915Z,99.90
2023-03-27T13:31:49.212Z,99.90
2023-03-27T13:36:11.746Z,99.90
2023-03-27T13:40:23.319Z,99.90
2023-03-27T13:44:30.909Z,99.90
2023-03-27T13:48:53.630Z,99.90
2023-03-27T13:52:55.161Z,99.90
2023-03-27T13:57:01.519Z,99.90
2023-03-27T14:01:22.599Z,99.90
2023-03-27T14:05:31.547Z,99.90
2023-03-27T14:09:42.428Z,99.90
2023-03-27T14:13:59.528Z,99.90
2023-03-27T14:18:07.587Z,99.90
2023-03-27T14:22:23.274Z,99.90
2023-03-27T14:26:25.516Z,99.90
2023-03-27T14:30:29.267Z,99.90
2023-03-27T14:34:47.337Z,99.90
2023-03-27T14:38:59.999Z,97.80
2023-03-27T14:43:02.526Z,97.00
2023-03-27T14:47:12.101Z,95.90
2023-03-27T14:51:19.469Z,94.80
2023-03-27T14:55:22.755Z,96.30
2023-03-27T14:59:26.630Z,94.00
2023-03-27T15:03:30.812Z,94.30
2023-03-27T15:07:34.017Z,93.80
2023-03-27T15:11:41.015Z,94.70
2023-03-27T15:15:44.205Z,95.40
2023-03-27T15:19:54.171Z,96.30
2023-03-27T15:24:02.165Z,97.20
2023-03-27T15:28:07.363Z,97.90
2023-03-27T15:32:11.771Z,99.90
2023-03-27T15:36:37.786Z,98.40
2023-03-27T15:40:42.854Z,98.50
2023-03-27T15:44:44.545Z,97.80
2023-03-27T15:48:50.734Z,97.20
2023-03-27T15:52:54.061Z,98.30
2023-03-27T15:57:09.980Z,99.30
2023-03-27T16:01:21.439Z,96.60
2023-03-27T16:05:23.044Z,97.50
2023-03-27T16:09:24.680Z,96.70
2023-03-27T16:13:34.464Z,99.60
2023-03-27T16:17:36.022Z,98.40
2023-03-27T16:21:37.801Z,99.20
2023-03-27T16:25:41.800Z,99.90
2023-03-27T16:29:48.661Z,99.90
2023-03-27T16:33:51.111Z,99.90
2023-03-27T16:37:53.377Z,99.90
2023-03-27T16:41:55.008Z,99.90
2023-03-27T16:45:57.532Z,99.90
2023-03-27T16:50:11.371Z,99.90
2023-03-27T16:54:13.492Z,99.90
2023-03-27T16:58:15.028Z,99.90
2023-03-27T17:02:16.650Z,99.90
2023-03-27T17:06:19.395Z,99.90
2023-03-27T17:10:21.393Z,99.90
2023-03-27T17:14:23.173Z,99.90
2023-03-27T17:18:25.264Z,99.90
2023-03-27T17:22:29.601Z,99.90
2023-03-27T17:26:32.887Z,99.90
2023-03-27T17:30:40.942Z,99.90
2023-03-27T17:34:42.797Z,99.90
2023-03-27T17:38:47.532Z,99.90
2023-03-27T17:42:49.337Z,99.90
2023-03-27T17:46:51.815Z,99.90
2023-03-27T17:51:07.450Z,99.90
2023-03-27T17:55:10.173Z,99.90
2023-03-27T17:59:11.797Z,99.90
2023-03-27T18:03:13.671Z,99.90
2023-03-27T18:07:15.382Z,99.90
2023-03-27T18:11:17.100Z,99.90
2023-03-27T18:15:50.881Z,99.90
2023-03-27T18:19:58.631Z,99.90
2023-03-27T18:24:00.421Z,99.90
2023-03-27T18:28:08.161Z,99.90
2023-03-27T18:32:10.332Z,99.90
2023-03-27T18:36:13.357Z,99.90
2023-03-27T18:40:43.463Z,99.90
2023-03-27T18:45:17.372Z,99.90
2023-03-27T18:49:24.866Z,99.90
2023-03-27T18:53:27.728Z,99.90
2023-03-27T18:57:29.480Z,99.90
2023-03-27T19:01:34.931Z,99.90
2023-03-27T19:05:36.690Z,99.90
2023-03-27T19:09:41.662Z,99.90
2023-03-27T19:13:43.590Z,99.90
2023-03-27T19:17:45.296Z,99.90
2023-03-27T19:21:47.439Z,99.90
2023-03-27T19:25:49.083Z,99.90
2023-03-27T19:29:50.786Z,99.90
2023-03-27T19:33:52.340Z,99.90
2023-03-27T19:37:54.980Z,99.90
2023-03-27T19:41:56.737Z,99.90
2023-03-27T19:46:15.796Z,99.90
2023-03-27T19:50:18.387Z,99.90
2023-03-27T19:54:20.101Z,99.90
2023-03-27T19:58:22.663Z,99.90
2023-03-27T20:02:24.673Z,99.90
2023-03-27T20:06:28.841Z,99.90
2023-03-27T20:10:30.604Z,99.90
2023-03-27T20:14:32.301Z,99.90
2023-03-27T20:18:34.268Z,99.90
2023-03-27T20:22:50.262Z,99.90
2023-03-27T20:26:58.359Z,99.90
2023-03-27T20:31:04.721Z,99.90
2023-03-27T20:35:16.577Z,99.90
2023-03-27T20:39:27.245Z,99.90
2023-03-27T20:43:31.146Z,99.90
2023-03-27T20:47:39.457Z,99.90
2023-03-27T20:51:42.833Z,99.90
2023-03-27T20:59:48.848Z,99.90
2023-03-27T21:03:54.133Z,99.90
2023-03-27T21:07:56.815Z,99.90
2023-03-27T21:11:58.901Z,99.90
2023-03-27T21:16:02.631Z,99.90
2023-03-27T21:20:06.451Z,99.90
2023-03-27T21:24:17.008Z,99.90
2023-03-27T21:28:18.989Z,99.90
2023-03-27T21:32:21.020Z,99.90
2023-03-27T21:36:22.814Z,99.90
2023-03-27T21:40:24.595Z,99.90
2023-03-27T21:44:26.195Z,99.90
2023-03-27T21:48:28.166Z,99.90
2023-03-27T21:52:29.845Z,99.90
2023-03-27T21:56:31.542Z,99.90
2023-03-27T22:00:33.352Z,99.90
2023-03-27T22:04:34.983Z,99.90
2023-03-27T22:08:37.330Z,99.90
2023-03-27T22:12:39.250Z,99.90
2023-03-27T22:16:40.892Z,99.90
2023-03-27T22:20:42.471Z,99.90
2023-03-27T22:24:44.093Z,99.90
2023-03-27T22:28:45.967Z,99.90
2023-03-27T22:32:47.620Z,99.90
2023-03-27T22:36:49.249Z,99.90
2023-03-27T22:40:50.994Z,99.90
2023-03-27T22:44:52.578Z,99.90
2023-03-27T22:48:57.852Z,99.90
2023-03-27T22:52:59.451Z,99.90
2023-03-27T22:57:01.681Z,99.90
2023-03-27T23:01:03.983Z,99.90
2023-03-27T23:05:06.104Z,99.90
2023-03-27T23:09:08.500Z,99.90
2023-03-27T23:13:10.344Z,99.90
2023-03-27T23:17:11.944Z,99.90
2023-03-27T23:21:14.155Z,99.90
2023-03-27T23:25:15.817Z,99.90
2023-03-27T23:29:17.349Z,99.90
2023-03-27T23:33:19.026Z,99.90
2023-03-27T23:37:20.873Z,99.90
2023-03-27T23:41:22.569Z,99.90
2023-03-27T23:45:24.099Z,99.90
2023-03-27T23:49:25.924Z,99.90
2023-03-27T23:53:28.175Z,99.90
2023-03-27T23:57:29.769Z,99.90
